Wetterdaten: Woche 01.10.18 - 07.10.18 (KW40)
Datum Zeit Temperatur Luftfeuchte Luftdruck Niederschlag Windrichtung Sonnenschein Solar Wind
01.10.2018 00:00 13,5 C 91 % 1011,4 hPa 2,6 l/m W-SW 0,00 h 0 W/m 13,4 km/h (3 Bft)
01.10.2018 01:00 12,8 C 94 % 1011,3 hPa 3,0 l/m W 0,00 h 0 W/m 17,2 km/h (3 Bft)
01.10.2018 02:00 12,1 C 95 % 1011,0 hPa 1,8 l/m W-SW 0,00 h 0 W/m 20,2 km/h (4 Bft)
01.10.2018 03:00 11,8 C 96 % 1010,5 hPa 4,0 l/m W 0,00 h 0 W/m 15,7 km/h (3 Bft)
01.10.2018 04:00 11,4 C 96 % 1010,1 hPa 4,4 l/m W 0,00 h 0 W/m 13,8 km/h (3 Bft)
01.10.2018 05:00 11,2 C 97 % 1009,9 hPa 9,0 l/m NW 0,00 h 0 W/m 7,4 km/h (2 Bft)
01.10.2018 06:00 10,5 C 97 % 1009,8 hPa 2,8 l/m N 0,00 h 0 W/m 2,3 km/h (1 Bft)
01.10.2018 07:00 10,3 C 97 % 1009,9 hPa 1,2 l/m NW 0,00 h 5 W/m 0,9 km/h (0 Bft)
01.10.2018 08:00 9,6 C 96 % 1010,7 hPa 2,6 l/m N-NW 0,00 h 18 W/m 13,3 km/h (3 Bft)
01.10.2018 09:00 8,4 C 96 % 1011,8 hPa 0,0 l/m N-NW 0,00 h 83 W/m 14,4 km/h (3 Bft)
01.10.2018 10:00 8,1 C 94 % 1013,2 hPa 0,0 l/m N-NW 0,00 h 111 W/m 14,8 km/h (3 Bft)
01.10.2018 11:00 8,8 C 91 % 1013,9 hPa 0,0 l/m NW 0,00 h 176 W/m 10,4 km/h (2 Bft)
01.10.2018 12:00 9,9 C 88 % 1014,1 hPa 0,0 l/m W-NW 0,08 h 246 W/m 9,5 km/h (2 Bft)
01.10.2018 13:00 10,3 C 85 % 1014,4 hPa 0,0 l/m NW 0,00 h 265 W/m 13,3 km/h (3 Bft)
01.10.2018 14:00 10,0 C 84 % 1014,8 hPa 0,0 l/m N-NW 0,00 h 114 W/m 15,3 km/h (3 Bft)
01.10.2018 15:00 9,5 C 86 % 1015,0 hPa 0,0 l/m N-NW 0,00 h 154 W/m 13,7 km/h (3 Bft)
01.10.2018 16:00 9,7 C 83 % 1015,4 hPa 0,0 l/m N-NW 0,00 h 125 W/m 12,1 km/h (2 Bft)
01.10.2018 17:00 9,5 C 86 % 1016,1 hPa 0,0 l/m NW 0,00 h 78 W/m 4,3 km/h (1 Bft)
01.10.2018 18:00 8,9 C 90 % 1016,7 hPa 1,4 l/m W-NW 0,25 h 20 W/m 2,1 km/h (1 Bft)
01.10.2018 19:00 8,1 C 93 % 1017,4 hPa 0,0 l/m N 0,00 h 0 W/m 0,0 km/h (0 Bft)
01.10.2018 20:00 7,5 C 94 % 1018,0 hPa 0,0 l/m N 0,00 h 0 W/m 0,0 km/h (0 Bft)
01.10.2018 21:00 6,7 C 94 % 1018,6 hPa 0,0 l/m N 0,00 h 0 W/m 0,0 km/h (0 Bft)
01.10.2018 22:00 6,3 C 94 % 1019,3 hPa 0,6 l/m NW 0,00 h 0 W/m 7,5 km/h (2 Bft)
01.10.2018 23:00 6,3 C 95 % 1020,0 hPa 1,8 l/m NW 0,00 h 0 W/m 9,9 km/h (2 Bft)
02.10.2018 00:00 5,7 C 94 % 1020,1 hPa 0,2 l/m N 0,00 h 0 W/m 1,1 km/h (0 Bft)
02.10.2018 01:00 5,6 C 94 % 1020,2 hPa 0,0 l/m N 0,00 h 0 W/m 0,0 km/h (0 Bft)
02.10.2018 02:00 4,9 C 94 % 1020,5 hPa 0,0 l/m N 0,00 h 0 W/m 0,9 km/h (0 Bft)
02.10.2018 03:00 4,3 C 95 % 1020,7 hPa 0,0 l/m N-NW 0,00 h 0 W/m 3,0 km/h (1 Bft)
02.10.2018 04:00 3,9 C 95 % 1021,0 hPa 0,0 l/m N-NW 0,00 h 0 W/m 3,6 km/h (1 Bft)
02.10.2018 05:00 3,4 C 95 % 1021,3 hPa 0,0 l/m N 0,00 h 0 W/m 0,0 km/h (0 Bft)
02.10.2018 06:00 2,6 C 95 % 1021,7 hPa 0,0 l/m N 0,00 h 0 W/m 0,0 km/h (0 Bft)
02.10.2018 07:00 1,9 C 95 % 1022,3 hPa 0,0 l/m N 0,08 h 18 W/m 0,0 km/h (0 Bft)
02.10.2018 08:00 2,5 C 96 % 1022,6 hPa 0,0 l/m N 0,83 h 130 W/m 0,0 km/h (0 Bft)
02.10.2018 09:00 4,8 C 96 % 1023,1 hPa 0,0 l/m NW 0,67 h 230 W/m 4,2 km/h (1 Bft)
02.10.2018 10:00 6,9 C 89 % 1023,2 hPa 0,0 l/m SW 0,92 h 447 W/m 8,0 km/h (2 Bft)
02.10.2018 11:00 8,3 C 81 % 1023,1 hPa 0,0 l/m W-SW 0,50 h 351 W/m 15,8 km/h (3 Bft)
02.10.2018 12:00 8,9 C 75 % 1023,0 hPa 0,0 l/m W 0,42 h 339 W/m 19,4 km/h (3 Bft)
02.10.2018 13:00 9,9 C 69 % 1022,7 hPa 0,0 l/m W 0,58 h 363 W/m 20,5 km/h (4 Bft)
02.10.2018 14:00 10,4 C 68 % 1022,0 hPa 0,0 l/m W-SW 0,50 h 335 W/m 21,2 km/h (4 Bft)
02.10.2018 15:00 10,8 C 64 % 1021,6 hPa 0,2 l/m W 0,08 h 226 W/m 19,3 km/h (3 Bft)
02.10.2018 16:00 11,0 C 63 % 1021,7 hPa 0,0 l/m W-SW 0,17 h 178 W/m 20,6 km/h (4 Bft)
02.10.2018 17:00 10,6 C 64 % 1021,6 hPa 0,0 l/m W-SW 0,00 h 76 W/m 18,6 km/h (3 Bft)
02.10.2018 18:00 10,0 C 68 % 1021,6 hPa 0,0 l/m W-SW 0,00 h 14 W/m 18,1 km/h (3 Bft)
02.10.2018 19:00 9,4 C 72 % 1022,1 hPa 0,0 l/m W-SW 0,00 h 0 W/m 20,1 km/h (4 Bft)
02.10.2018 20:00 9,4 C 74 % 1022,6 hPa 0,0 l/m W-SW 0,00 h 0 W/m 20,6 km/h (4 Bft)
02.10.2018 21:00 9,4 C 75 % 1022,9 hPa 0,0 l/m SW 0,00 h 0 W/m 18,5 km/h (3 Bft)
02.10.2018 22:00 9,3 C 77 % 1023,4 hPa 0,0 l/m W-SW 0,00 h 0 W/m 20,9 km/h (4 Bft)
02.10.2018 23:00 9,2 C 78 % 1023,4 hPa 0,0 l/m W-SW 0,00 h 0 W/m 21,0 km/h (4 Bft)
03.10.2018 00:00 8,9 C 80 % 1023,1 hPa 0,0 l/m W-SW 0,00 h 0 W/m 24,5 km/h (4 Bft)
03.10.2018 01:00 8,3 C 83 % 1023,1 hPa 0,0 l/m SW 0,00 h 0 W/m 18,8 km/h (3 Bft)
03.10.2018 02:00 8,3 C 85 % 1023,2 hPa 0,0 l/m W-SW 0,00 h 0 W/m 11,5 km/h (2 Bft)
03.10.2018 03:00 8,7 C 84 % 1023,1 hPa 0,0 l/m W-SW 0,00 h 0 W/m 24,0 km/h (4 Bft)
03.10.2018 04:00 8,8 C 83 % 1023,0 hPa 0,0 l/m W-SW 0,00 h 0 W/m 23,7 km/h (4 Bft)
03.10.2018 05:00 9,0 C 84 % 1023,2 hPa 0,0 l/m W-SW 0,00 h 0 W/m 20,5 km/h (4 Bft)
03.10.2018 06:00 8,9 C 85 % 1023,4 hPa 0,0 l/m SW 0,00 h 0 W/m 15,0 km/h (3 Bft)
03.10.2018 07:00 8,9 C 86 % 1023,8 hPa 0,0 l/m W-SW 0,00 h 10 W/m 16,8 km/h (3 Bft)
03.10.2018 08:00 8,7 C 89 % 1024,0 hPa 0,0 l/m S-SW 0,00 h 31 W/m 6,8 km/h (2 Bft)
03.10.2018 09:00 9,0 C 89 % 1024,4 hPa 0,0 l/m N 0,00 h 45 W/m 0,7 km/h (0 Bft)
03.10.2018 10:00 9,8 C 88 % 1024,8 hPa 0,0 l/m SW 0,00 h 63 W/m 7,2 km/h (2 Bft)
03.10.2018 11:00 10,8 C 86 % 1024,8 hPa 0,0 l/m SW 0,00 h 78 W/m 2,8 km/h (1 Bft)
03.10.2018 12:00 11,5 C 87 % 1024,8 hPa 0,0 l/m SW 0,17 h 236 W/m 8,9 km/h (2 Bft)
03.10.2018 13:00 13,9 C 81 % 1024,4 hPa 0,0 l/m SW 0,92 h 429 W/m 16,2 km/h (3 Bft)
03.10.2018 14:00 14,7 C 78 % 1024,1 hPa 0,0 l/m SW 0,75 h 423 W/m 18,5 km/h (3 Bft)
03.10.2018 15:00 13,9 C 82 % 1024,1 hPa 0,0 l/m S-SW 0,25 h 207 W/m 15,4 km/h (3 Bft)
03.10.2018 16:00 14,2 C 79 % 1024,2 hPa 0,0 l/m SW 0,25 h 175 W/m 9,1 km/h (2 Bft)
03.10.2018 17:00 14,2 C 75 % 1024,5 hPa 0,0 l/m W-NW 0,00 h 56 W/m 5,1 km/h (1 Bft)
03.10.2018 18:00 13,3 C 86 % 1024,9 hPa 0,0 l/m N 0,00 h 19 W/m 0,0 km/h (0 Bft)
03.10.2018 19:00 12,3 C 85 % 1025,3 hPa 0,0 l/m N 0,00 h 0 W/m 1,3 km/h (1 Bft)
03.10.2018 20:00 10,3 C 91 % 1025,8 hPa 0,0 l/m N 0,00 h 0 W/m 0,0 km/h (0 Bft)
03.10.2018 21:00 9,2 C 93 % 1026,0 hPa 0,0 l/m N 0,00 h 0 W/m 0,0 km/h (0 Bft)
03.10.2018 22:00 8,4 C 93 % 1026,0 hPa 0,0 l/m N 0,00 h 0 W/m 0,0 km/h (0 Bft)
03.10.2018 23:00 7,5 C 93 % 1026,0 hPa 0,0 l/m N 0,00 h 0 W/m 0,0 km/h (0 Bft)
04.10.2018 00:00 6,8 C 93 % 1026,0 hPa 0,0 l/m N 0,00 h 0 W/m 0,0 km/h (0 Bft)
04.10.2018 01:00 6,2 C 93 % 1026,2 hPa 0,0 l/m N 0,00 h 0 W/m 0,0 km/h (0 Bft)
04.10.2018 02:00 5,7 C 94 % 1026,5 hPa 0,0 l/m N 0,00 h 0 W/m 0,0 km/h (0 Bft)
04.10.2018 03:00 5,2 C 94 % 1026,4 hPa 0,0 l/m N 0,00 h 0 W/m 0,0 km/h (0 Bft)
04.10.2018 04:00 4,9 C 94 % 1026,2 hPa 0,0 l/m W-NW 0,00 h 0 W/m 1,3 km/h (1 Bft)
04.10.2018 05:00 5,3 C 95 % 1026,1 hPa 0,0 l/m N 0,00 h 0 W/m 0,0 km/h (0 Bft)
04.10.2018 06:00 5,0 C 95 % 1026,0 hPa 0,0 l/m N 0,00 h 0 W/m 0,0 km/h (0 Bft)
04.10.2018 07:00 4,5 C 95 % 1026,0 hPa 0,0 l/m N 0,08 h 17 W/m 0,0 km/h (0 Bft)
04.10.2018 08:00 5,1 C 97 % 1026,0 hPa 0,0 l/m N 0,00 h 75 W/m 0,5 km/h (0 Bft)
04.10.2018 09:00 6,7 C 98 % 1026,2 hPa 0,0 l/m W-NW 0,08 h 159 W/m 2,5 km/h (1 Bft)
04.10.2018 10:00 8,0 C 98 % 1026,5 hPa 0,0 l/m W-NW 0,17 h 211 W/m 6,3 km/h (2 Bft)
04.10.2018 11:00 10,7 C 96 % 1026,2 hPa 0,0 l/m NO 0,92 h 531 W/m 10,6 km/h (2 Bft)
04.10.2018 12:00 12,8 C 86 % 1025,6 hPa 0,0 l/m NO 1,00 h 610 W/m 15,2 km/h (3 Bft)
04.10.2018 13:00 14,6 C 79 % 1024,9 hPa 0,0 l/m NO 1,00 h 622 W/m 16,9 km/h (3 Bft)
04.10.2018 14:00 16,1 C 70 % 1024,2 hPa 0,0 l/m NO 1,00 h 582 W/m 16,6 km/h (3 Bft)
04.10.2018 15:00 17,0 C 65 % 1023,7 hPa 0,0 l/m O-NO 1,00 h 485 W/m 16,0 km/h (3 Bft)
04.10.2018 16:00 17,0 C 64 % 1023,4 hPa 0,0 l/m O-NO 1,00 h 352 W/m 15,2 km/h (3 Bft)
04.10.2018 17:00 16,1 C 66 % 1022,9 hPa 0,0 l/m O-NO 1,00 h 174 W/m 13,8 km/h (3 Bft)
04.10.2018 18:00 14,6 C 69 % 1022,8 hPa 0,0 l/m NO 0,08 h 26 W/m 6,8 km/h (2 Bft)
04.10.2018 19:00 11,4 C 81 % 1022,9 hPa 0,0 l/m N 0,00 h 0 W/m 0,0 km/h (0 Bft)
04.10.2018 20:00 9,9 C 86 % 1023,1 hPa 0,0 l/m N 0,00 h 0 W/m 0,0 km/h (0 Bft)
04.10.2018 21:00 9,2 C 87 % 1023,3 hPa 0,0 l/m N 0,00 h 0 W/m 0,0 km/h (0 Bft)
04.10.2018 22:00 8,5 C 88 % 1023,2 hPa 0,0 l/m N 0,00 h 0 W/m 0,0 km/h (0 Bft)
04.10.2018 23:00 8,0 C 89 % 1023,0 hPa 0,0 l/m N 0,00 h 0 W/m 0,0 km/h (0 Bft)
05.10.2018 00:00 7,6 C 90 % 1022,9 hPa 0,0 l/m N 0,00 h 0 W/m 0,0 km/h (0 Bft)
05.10.2018 01:00 7,0 C 91 % 1022,8 hPa 0,0 l/m N 0,00 h 0 W/m 0,0 km/h (0 Bft)
05.10.2018 02:00 6,4 C 91 % 1022,6 hPa 0,0 l/m N 0,00 h 0 W/m 0,0 km/h (0 Bft)
05.10.2018 03:00 6,0 C 92 % 1022,4 hPa 0,0 l/m N 0,00 h 0 W/m 0,0 km/h (0 Bft)
05.10.2018 04:00 5,5 C 92 % 1022,0 hPa 0,0 l/m N 0,00 h 0 W/m 0,0 km/h (0 Bft)
05.10.2018 05:00 4,9 C 92 % 1021,7 hPa 0,0 l/m N 0,00 h 0 W/m 0,0 km/h (0 Bft)
05.10.2018 06:00 4,4 C 93 % 1021,5 hPa 0,0 l/m N 0,00 h 0 W/m 0,0 km/h (0 Bft)
05.10.2018 07:00 3,9 C 93 % 1021,4 hPa 0,0 l/m N 0,00 h 12 W/m 0,0 km/h (0 Bft)
05.10.2018 08:00 5,0 C 95 % 1021,7 hPa 0,0 l/m N 0,00 h 62 W/m 0,0 km/h (0 Bft)
05.10.2018 09:00 6,3 C 97 % 1021,9 hPa 0,0 l/m N 0,00 h 134 W/m 0,0 km/h (0 Bft)
05.10.2018 10:00 7,4 C 98 % 1021,7 hPa 0,0 l/m N 0,25 h 249 W/m 0,0 km/h (0 Bft)
05.10.2018 11:00 10,0 C 97 % 1021,1 hPa 0,0 l/m N 1,00 h 504 W/m 0,0 km/h (0 Bft)
05.10.2018 12:00 14,7 C 84 % 1020,0 hPa 0,0 l/m N 1,00 h 599 W/m 0,0 km/h (0 Bft)
05.10.2018 13:00 18,1 C 72 % 1019,1 hPa 0,0 l/m N 1,00 h 614 W/m 0,0 km/h (0 Bft)
05.10.2018 14:00 19,9 C 67 % 1018,0 hPa 0,0 l/m N 1,00 h 568 W/m 0,0 km/h (0 Bft)
05.10.2018 15:00 20,9 C 62 % 1017,3 hPa 0,0 l/m N 1,00 h 475 W/m 2,1 km/h (1 Bft)
05.10.2018 16:00 21,1 C 58 % 1016,8 hPa 0,0 l/m O-NO 1,00 h 344 W/m 0,9 km/h (0 Bft)
05.10.2018 17:00 20,6 C 60 % 1016,2 hPa 0,0 l/m N 1,00 h 166 W/m 1,1 km/h (0 Bft)
05.10.2018 18:00 16,9 C 78 % 1016,0 hPa 0,0 l/m N 0,00 h 23 W/m 0,0 km/h (0 Bft)
05.10.2018 19:00 13,9 C 87 % 1016,0 hPa 0,0 l/m N 0,00 h 0 W/m 0,0 km/h (0 Bft)
05.10.2018 20:00 12,7 C 89 % 1015,7 hPa 0,0 l/m N 0,00 h 0 W/m 0,0 km/h (0 Bft)
05.10.2018 21:00 11,9 C 89 % 1015,8 hPa 0,0 l/m N 0,00 h 0 W/m 0,0 km/h (0 Bft)
05.10.2018 22:00 11,1 C 90 % 1015,9 hPa 0,0 l/m N 0,00 h 0 W/m 0,0 km/h (0 Bft)
05.10.2018 23:00 10,4 C 91 % 1015,9 hPa 0,0 l/m N 0,00 h 0 W/m 0,0 km/h (0 Bft)
06.10.2018 00:00 9,7 C 91 % 1015,6 hPa 0,0 l/m N 0,00 h 0 W/m 0,0 km/h (0 Bft)
06.10.2018 01:00 9,1 C 92 % 1015,5 hPa 0,0 l/m N 0,00 h 0 W/m 0,0 km/h (0 Bft)
06.10.2018 02:00 8,4 C 93 % 1015,4 hPa 0,0 l/m N 0,00 h 0 W/m 0,0 km/h (0 Bft)
06.10.2018 03:00 8,0 C 94 % 1014,9 hPa 0,0 l/m N 0,00 h 0 W/m 0,0 km/h (0 Bft)
06.10.2018 04:00 7,6 C 94 % 1014,6 hPa 0,0 l/m N 0,00 h 0 W/m 0,0 km/h (0 Bft)
06.10.2018 05:00 7,3 C 95 % 1014,4 hPa 0,0 l/m N 0,00 h 0 W/m 0,0 km/h (0 Bft)
06.10.2018 06:00 7,0 C 95 % 1014,2 hPa 0,0 l/m N 0,00 h 0 W/m 0,0 km/h (0 Bft)
06.10.2018 07:00 7,4 C 96 % 1013,8 hPa 0,0 l/m N 0,00 h 12 W/m 0,0 km/h (0 Bft)
06.10.2018 08:00 8,2 C 97 % 1014,0 hPa 0,2 l/m N 0,00 h 44 W/m 0,0 km/h (0 Bft)
06.10.2018 09:00 10,3 C 98 % 1013,9 hPa 0,0 l/m N 0,00 h 111 W/m 0,0 km/h (0 Bft)
06.10.2018 10:00 11,9 C 99 % 1013,7 hPa 0,0 l/m N 0,00 h 173 W/m 0,0 km/h (0 Bft)
06.10.2018 11:00 13,4 C 95 % 1013,2 hPa 0,0 l/m O-NO 0,00 h 223 W/m 5,8 km/h (1 Bft)
06.10.2018 12:00 14,9 C 86 % 1012,6 hPa 0,0 l/m S-SO 0,00 h 270 W/m 7,2 km/h (2 Bft)
06.10.2018 13:00 16,4 C 82 % 1011,8 hPa 0,0 l/m S-SW 0,67 h 339 W/m 9,5 km/h (2 Bft)
06.10.2018 14:00 18,6 C 76 % 1010,7 hPa 0,0 l/m SW 0,92 h 349 W/m 7,6 km/h (2 Bft)
06.10.2018 15:00 18,9 C 74 % 1010,0 hPa 0,0 l/m SW 0,25 h 267 W/m 7,4 km/h (2 Bft)
06.10.2018 16:00 20,1 C 70 % 1009,5 hPa 0,0 l/m S-SW 1,00 h 354 W/m 10,8 km/h (2 Bft)
06.10.2018 17:00 19,0 C 75 % 1009,2 hPa 0,0 l/m S-SW 0,25 h 107 W/m 5,0 km/h (1 Bft)
06.10.2018 18:00 17,5 C 79 % 1008,9 hPa 0,0 l/m S-SW 0,00 h 18 W/m 2,3 km/h (1 Bft)
06.10.2018 19:00 15,3 C 87 % 1009,0 hPa 0,0 l/m N 0,00 h 0 W/m 0,0 km/h (0 Bft)
06.10.2018 20:00 13,5 C 91 % 1009,3 hPa 0,0 l/m N 0,00 h 0 W/m 0,0 km/h (0 Bft)
06.10.2018 21:00 12,2 C 94 % 1009,6 hPa 0,0 l/m N 0,00 h 0 W/m 0,0 km/h (0 Bft)
06.10.2018 22:00 11,4 C 95 % 1009,9 hPa 0,0 l/m N 0,00 h 0 W/m 0,0 km/h (0 Bft)
06.10.2018 23:00 10,9 C 96 % 1009,9 hPa 0,0 l/m N 0,00 h 0 W/m 0,0 km/h (0 Bft)
07.10.2018 00:00 10,6 C 96 % 1009,7 hPa 0,0 l/m N 0,00 h 0 W/m 0,0 km/h (0 Bft)
07.10.2018 01:00 10,4 C 96 % 1009,3 hPa 0,0 l/m N 0,00 h 0 W/m 0,0 km/h (0 Bft)
07.10.2018 02:00 10,4 C 97 % 1009,2 hPa 0,0 l/m N 0,00 h 0 W/m 0,0 km/h (0 Bft)
07.10.2018 03:00 10,6 C 97 % 1009,3 hPa 0,0 l/m N 0,00 h 0 W/m 0,0 km/h (0 Bft)
07.10.2018 04:00 10,7 C 97 % 1009,3 hPa 0,0 l/m N 0,00 h 0 W/m 0,0 km/h (0 Bft)
07.10.2018 05:00 10,5 C 97 % 1009,6 hPa 0,0 l/m S-SW 0,00 h 0 W/m 0,7 km/h (0 Bft)
07.10.2018 06:00 10,7 C 97 % 1010,0 hPa 0,0 l/m S-SW 0,00 h 0 W/m 3,2 km/h (1 Bft)
07.10.2018 07:00 10,8 C 97 % 1010,6 hPa 0,0 l/m N 0,00 h 9 W/m 0,0 km/h (0 Bft)
07.10.2018 08:00 10,8 C 98 % 1011,1 hPa 0,0 l/m N 0,00 h 42 W/m 0,0 km/h (0 Bft)
07.10.2018 09:00 11,6 C 98 % 1011,8 hPa 0,0 l/m S-SW 0,25 h 124 W/m 1,1 km/h (0 Bft)
07.10.2018 10:00 14,6 C 95 % 1012,3 hPa 0,0 l/m N 0,67 h 401 W/m 2,9 km/h (1 Bft)
07.10.2018 11:00 17,1 C 83 % 1012,2 hPa 0,0 l/m S-SW 0,58 h 336 W/m 1,5 km/h (1 Bft)
07.10.2018 12:00 18,1 C 78 % 1012,2 hPa 0,0 l/m S-SW 0,75 h 470 W/m 3,6 km/h (1 Bft)
07.10.2018 13:00 20,1 C 66 % 1012,3 hPa 0,0 l/m O 0,92 h 632 W/m 12,3 km/h (3 Bft)
07.10.2018 14:00 20,9 C 61 % 1012,3 hPa 0,0 l/m O-NO 0,92 h 577 W/m 13,4 km/h (3 Bft)
07.10.2018 15:00 20,6 C 62 % 1012,4 hPa 0,0 l/m O-NO 0,42 h 247 W/m 8,2 km/h (2 Bft)
07.10.2018 16:00 20,1 C 65 % 1012,5 hPa 0,0 l/m O 0,42 h 208 W/m 6,4 km/h (2 Bft)
07.10.2018 17:00 18,7 C 72 % 1012,5 hPa 0,0 l/m O 0,08 h 60 W/m 2,4 km/h (1 Bft)
07.10.2018 18:00 17,1 C 79 % 1012,8 hPa 0,0 l/m N 0,00 h 18 W/m 0,1 km/h (0 Bft)
07.10.2018 19:00 14,7 C 87 % 1013,7 hPa 0,0 l/m N 0,00 h 0 W/m 0,0 km/h (0 Bft)
07.10.2018 20:00 13,6 C 90 % 1014,5 hPa 0,0 l/m O 0,00 h 0 W/m 2,4 km/h (1 Bft)
07.10.2018 21:00 13,3 C 90 % 1015,0 hPa 0,0 l/m N 0,00 h 0 W/m 1,3 km/h (1 Bft)
07.10.2018 22:00 12,7 C 90 % 1015,4 hPa 0,0 l/m O 0,00 h 0 W/m 2,3 km/h (1 Bft)
07.10.2018 23:00 12,1 C 90 % 1015,6 hPa 0,0 l/m O 0,00 h 0 W/m 1,9 km/h (1 Bft)
Min-Datum _ 02.10.18 05.10.18 06.10.18 - - - - 01.10.18
_ Min-Zeit 07:45 16:10 18:25 - - - - 05:00
Minimum _ 1,6 C 56 % 1008,8 hPa - - - - 0,0 km/h (0 Bft)
Max-Datum _ 05.10.18 06.10.18 04.10.18 01.10.18 - 01.10.18 02.10.18 02.10.18
_ Max-Zeit 16:00 10:05 02:25 05:20 - 12:05 13:05 19:20
Maximum _ 21,5 C 99 % 1026,7 hPa 9,0 l/m - 0,08 h 812 W/m 35,4 km/h
W-SW (5 Bft)
Durchschnitt _ 10,7 C 87 % 1018,4 hPa #35,8 l/m W-SW #30:05 h 225 W/m 5,9 km/h (2 Bft)